sensor_id;sensor_type;location;lat;lon;timestamp;temperature;humidity
34542;DHT22;20784;51.332;12.410;2022-12-07T00:01:36;3.80;99.90
34542;DHT22;20784;51.332;12.410;2022-12-07T00:04:04;3.90;99.90
34542;DHT22;20784;51.332;12.410;2022-12-07T00:06:36;3.90;99.90
34542;DHT22;20784;51.332;12.410;2022-12-07T00:09:05;3.90;99.90
34542;DHT22;20784;51.332;12.410;2022-12-07T00:11:39;3.80;99.90
34542;DHT22;20784;51.332;12.410;2022-12-07T00:14:12;3.90;99.90
34542;DHT22;20784;51.332;12.410;2022-12-07T00:16:44;3.90;99.90
34542;DHT22;20784;51.332;12.410;2022-12-07T00:19:11;3.90;99.90
34542;DHT22;20784;51.332;12.410;2022-12-07T00:21:37;3.80;99.90
34542;DHT22;20784;51.332;12.410;2022-12-07T00:24:10;3.80;99.90
34542;DHT22;20784;51.332;12.410;2022-12-07T00:26:38;3.70;99.90
34542;DHT22;20784;51.332;12.410;2022-12-07T00:29:06;3.70;99.90
34542;DHT22;20784;51.332;12.410;2022-12-07T00:31:36;3.70;99.90
34542;DHT22;20784;51.332;12.410;2022-12-07T00:34:04;3.70;99.90
34542;DHT22;20784;51.332;12.410;2022-12-07T00:36:30;3.70;99.90
34542;DHT22;20784;51.332;12.410;2022-12-07T00:39:00;3.70;99.90
34542;DHT22;20784;51.332;12.410;2022-12-07T00:41:28;3.70;99.90
34542;DHT22;20784;51.332;12.410;2022-12-07T00:43:54;3.60;99.90
34542;DHT22;20784;51.332;12.410;2022-12-07T00:46:21;3.60;99.90
34542;DHT22;20784;51.332;12.410;2022-12-07T00:48:48;3.60;99.90
34542;DHT22;20784;51.332;12.410;2022-12-07T00:51:16;3.60;99.90
34542;DHT22;20784;51.332;12.410;2022-12-07T00:53:42;3.50;99.90
34542;DHT22;20784;51.332;12.410;2022-12-07T00:56:20;3.40;99.90
34542;DHT22;20784;51.332;12.410;2022-12-07T00:58:56;3.40;99.90
34542;DHT22;20784;51.332;12.410;2022-12-07T01:01:22;3.40;99.90
34542;DHT22;20784;51.332;12.410;2022-12-07T01:03:48;3.20;99.90
34542;DHT22;20784;51.332;12.410;2022-12-07T01:06:16;3.20;99.90
34542;DHT22;20784;51.332;12.410;2022-12-07T01:08:44;3.20;99.90
34542;DHT22;20784;51.332;12.410;2022-12-07T01:11:13;3.10;99.90
34542;DHT22;20784;51.332;12.410;2022-12-07T01:13:40;3.00;99.90
34542;DHT22;20784;51.332;12.410;2022-12-07T01:16:07;3.00;99.90
34542;DHT22;20784;51.332;12.410;2022-12-07T01:18:36;3.00;99.90
34542;DHT22;20784;51.332;12.410;2022-12-07T01:21:15;2.90;99.90
34542;DHT22;20784;51.332;12.410;2022-12-07T01:23:42;2.90;99.90
34542;DHT22;20784;51.332;12.410;2022-12-07T01:26:11;2.80;99.90
34542;DHT22;20784;51.332;12.410;2022-12-07T01:28:41;2.80;99.90
34542;DHT22;20784;51.332;12.410;2022-12-07T01:31:15;2.70;99.90
34542;DHT22;20784;51.332;12.410;2022-12-07T01:33:42;2.80;99.90
34542;DHT22;20784;51.332;12.410;2022-12-07T01:38:42;2.70;99.90
34542;DHT22;20784;51.332;12.410;2022-12-07T01:41:07;2.70;99.90
34542;DHT22;20784;51.332;12.410;2022-12-07T01:43:34;2.60;99.90
34542;DHT22;20784;51.332;12.410;2022-12-07T01:46:00;2.60;99.90
34542;DHT22;20784;51.332;12.410;2022-12-07T01:48:31;2.60;99.90
34542;DHT22;20784;51.332;12.410;2022-12-07T01:51:01;2.60;99.90
34542;DHT22;20784;51.332;12.410;2022-12-07T01:53:29;2.60;99.90
34542;DHT22;20784;51.332;12.410;2022-12-07T01:55:56;2.60;99.90
34542;DHT22;20784;51.332;12.410;2022-12-07T01:58:24;2.50;99.90
34542;DHT22;20784;51.332;12.410;2022-12-07T02:00:50;2.50;99.90
34542;DHT22;20784;51.332;12.410;2022-12-07T02:03:27;2.60;99.90
34542;DHT22;20784;51.332;12.410;2022-12-07T02:05:56;2.50;99.90
34542;DHT22;20784;51.332;12.410;2022-12-07T02:08:31;2.40;99.90
34542;DHT22;20784;51.332;12.410;2022-12-07T02:10:57;2.40;99.90
34542;DHT22;20784;51.332;12.410;2022-12-07T02:13:26;2.40;99.90
34542;DHT22;20784;51.332;12.410;2022-12-07T02:29:45;2.20;99.90
34542;DHT22;20784;51.332;12.410;2022-12-07T02:35:04;2.10;99.90
34542;DHT22;20784;51.332;12.410;2022-12-07T02:40:04;2.20;99.90
34542;DHT22;20784;51.332;12.410;2022-12-07T02:42:38;2.20;99.90
34542;DHT22;20784;51.332;12.410;2022-12-07T02:45:07;2.10;99.90
34542;DHT22;20784;51.332;12.410;2022-12-07T02:47:35;2.20;99.90
34542;DHT22;20784;51.332;12.410;2022-12-07T02:50:06;2.10;99.90
34542;DHT22;20784;51.332;12.410;2022-12-07T02:52:32;2.10;99.90
34542;DHT22;20784;51.332;12.410;2022-12-07T02:54:58;2.10;99.90
34542;DHT22;20784;51.332;12.410;2022-12-07T03:00:20;2.10;99.90
34542;DHT22;20784;51.332;12.410;2022-12-07T03:03:09;2.10;99.90
34542;DHT22;20784;51.332;12.410;2022-12-07T03:08:30;2.10;99.90
34542;DHT22;20784;51.332;12.410;2022-12-07T03:11:08;2.10;99.90
34542;DHT22;20784;51.332;12.410;2022-12-07T03:14:03;2.10;99.90
34542;DHT22;20784;51.332;12.410;2022-12-07T03:16:51;2.20;99.90
34542;DHT22;20784;51.332;12.410;2022-12-07T03:19:21;2.20;99.90
34542;DHT22;20784;51.332;12.410;2022-12-07T03:22:01;2.20;99.90
34542;DHT22;20784;51.332;12.410;2022-12-07T03:24:32;2.20;99.90
34542;DHT22;20784;51.332;12.410;2022-12-07T03:27:29;2.20;99.90
34542;DHT22;20784;51.332;12.410;2022-12-07T03:30:12;2.20;99.90
34542;DHT22;20784;51.332;12.410;2022-12-07T03:32:45;2.20;99.90
34542;DHT22;20784;51.332;12.410;2022-12-07T03:38:00;2.20;99.90
34542;DHT22;20784;51.332;12.410;2022-12-07T03:40:33;2.20;99.90
34542;DHT22;20784;51.332;12.410;2022-12-07T03:43:00;2.30;99.90
34542;DHT22;20784;51.332;12.410;2022-12-07T03:46:01;2.30;99.90
34542;DHT22;20784;51.332;12.410;2022-12-07T03:48:37;2.30;99.90
34542;DHT22;20784;51.332;12.410;2022-12-07T03:51:26;2.30;99.90
34542;DHT22;20784;51.332;12.410;2022-12-07T03:54:15;2.30;99.90
34542;DHT22;20784;51.332;12.410;2022-12-07T03:56:44;2.30;99.90
34542;DHT22;20784;51.332;12.410;2022-12-07T03:59:12;2.30;99.90
34542;DHT22;20784;51.332;12.410;2022-12-07T04:01:42;2.40;99.90
34542;DHT22;20784;51.332;12.410;2022-12-07T04:04:08;2.40;99.90
34542;DHT22;20784;51.332;12.410;2022-12-07T04:06:37;2.40;99.90
34542;DHT22;20784;51.332;12.410;2022-12-07T04:09:03;2.40;99.90
34542;DHT22;20784;51.332;12.410;2022-12-07T04:11:29;2.50;99.90
34542;DHT22;20784;51.332;12.410;2022-12-07T04:13:54;2.50;99.90
34542;DHT22;20784;51.332;12.410;2022-12-07T04:16:38;2.60;99.90
34542;DHT22;20784;51.332;12.410;2022-12-07T04:19:04;2.60;99.90
34542;DHT22;20784;51.332;12.410;2022-12-07T04:21:30;2.60;99.90
34542;DHT22;20784;51.332;12.410;2022-12-07T04:23:56;2.60;99.90
34542;DHT22;20784;51.332;12.410;2022-12-07T04:26:21;2.60;99.90
34542;DHT22;20784;51.332;12.410;2022-12-07T04:28:47;2.70;99.90
34542;DHT22;20784;51.332;12.410;2022-12-07T04:31:13;2.70;99.90
34542;DHT22;20784;51.332;12.410;2022-12-07T04:33:39;2.70;99.90
34542;DHT22;20784;51.332;12.410;2022-12-07T04:36:05;2.70;99.90
34542;DHT22;20784;51.332;12.410;2022-12-07T04:38:31;2.80;99.90
34542;DHT22;20784;51.332;12.410;2022-12-07T04:40:57;2.70;99.90
34542;DHT22;20784;51.332;12.410;2022-12-07T04:43:22;2.70;99.90
34542;DHT22;20784;51.332;12.410;2022-12-07T04:45:48;2.70;99.90
34542;DHT22;20784;51.332;12.410;2022-12-07T04:48:14;2.70;99.90
34542;DHT22;20784;51.332;12.410;2022-12-07T04:50:43;2.70;99.90
34542;DHT22;20784;51.332;12.410;2022-12-07T04:53:14;2.70;99.90
34542;DHT22;20784;51.332;12.410;2022-12-07T04:55:40;2.50;99.90
34542;DHT22;20784;51.332;12.410;2022-12-07T04:58:06;2.60;99.90
34542;DHT22;20784;51.332;12.410;2022-12-07T05:00:34;2.60;99.90
34542;DHT22;20784;51.332;12.410;2022-12-07T05:03:00;2.60;99.90
34542;DHT22;20784;51.332;12.410;2022-12-07T05:05:29;2.60;99.90
34542;DHT22;20784;51.332;12.410;2022-12-07T05:07:58;2.60;99.90
34542;DHT22;20784;51.332;12.410;2022-12-07T05:10:24;2.60;99.90
34542;DHT22;20784;51.332;12.410;2022-12-07T05:12:52;2.50;99.90
34542;DHT22;20784;51.332;12.410;2022-12-07T05:15:18;2.70;99.90
34542;DHT22;20784;51.332;12.410;2022-12-07T05:17:47;2.60;99.90
34542;DHT22;20784;51.332;12.410;2022-12-07T05:20:13;2.70;99.90
34542;DHT22;20784;51.332;12.410;2022-12-07T05:22:39;2.80;99.90
34542;DHT22;20784;51.332;12.410;2022-12-07T05:25:05;2.80;99.90
34542;DHT22;20784;51.332;12.410;2022-12-07T05:27:31;2.80;99.90
34542;DHT22;20784;51.332;12.410;2022-12-07T05:29:56;2.90;99.90
34542;DHT22;20784;51.332;12.410;2022-12-07T05:32:22;2.90;99.90
34542;DHT22;20784;51.332;12.410;2022-12-07T05:34:53;2.90;99.90
34542;DHT22;20784;51.332;12.410;2022-12-07T05:37:20;2.90;99.90
34542;DHT22;20784;51.332;12.410;2022-12-07T05:39:57;2.90;99.90
34542;DHT22;20784;51.332;12.410;2022-12-07T05:45:22;2.90;99.90
34542;DHT22;20784;51.332;12.410;2022-12-07T05:47:50;2.90;99.90
34542;DHT22;20784;51.332;12.410;2022-12-07T05:50:24;3.00;99.90
34542;DHT22;20784;51.332;12.410;2022-12-07T05:53:00;3.00;99.90
34542;DHT22;20784;51.332;12.410;2022-12-07T05:55:28;3.00;99.90
34542;DHT22;20784;51.332;12.410;2022-12-07T05:58:04;3.00;99.90
34542;DHT22;20784;51.332;12.410;2022-12-07T06:00:48;3.00;99.90
34542;DHT22;20784;51.332;12.410;2022-12-07T06:03:15;3.00;99.90
34542;DHT22;20784;51.332;12.410;2022-12-07T06:05:41;3.00;99.90
34542;DHT22;20784;51.332;12.410;2022-12-07T06:08:07;3.00;99.90
34542;DHT22;20784;51.332;12.410;2022-12-07T06:10:42;3.00;99.90
34542;DHT22;20784;51.332;12.410;2022-12-07T06:13:08;3.10;99.90
34542;DHT22;20784;51.332;12.410;2022-12-07T06:15:37;3.10;99.90
34542;DHT22;20784;51.332;12.410;2022-12-07T06:18:03;3.10;99.90
34542;DHT22;20784;51.332;12.410;2022-12-07T06:20:28;3.10;99.90
34542;DHT22;20784;51.332;12.410;2022-12-07T06:22:57;3.20;99.90
34542;DHT22;20784;51.332;12.410;2022-12-07T06:25:23;3.10;99.90
34542;DHT22;20784;51.332;12.410;2022-12-07T06:27:49;3.20;99.90
34542;DHT22;20784;51.332;12.410;2022-12-07T06:30:25;3.20;99.90
34542;DHT22;20784;51.332;12.410;2022-12-07T06:32:58;3.20;99.90
34542;DHT22;20784;51.332;12.410;2022-12-07T06:35:24;3.20;99.90
34542;DHT22;20784;51.332;12.410;2022-12-07T06:37:55;3.20;99.90
34542;DHT22;20784;51.332;12.410;2022-12-07T06:40:52;3.20;99.90
34542;DHT22;20784;51.332;12.410;2022-12-07T06:43:24;3.20;99.90
34542;DHT22;20784;51.332;12.410;2022-12-07T06:45:53;3.10;99.90
34542;DHT22;20784;51.332;12.410;2022-12-07T06:48:19;3.10;99.90
34542;DHT22;20784;51.332;12.410;2022-12-07T06:50:46;3.10;99.90
34542;DHT22;20784;51.332;12.410;2022-12-07T06:53:13;3.00;99.90
34542;DHT22;20784;51.332;12.410;2022-12-07T06:55:38;3.10;99.90
34542;DHT22;20784;51.332;12.410;2022-12-07T06:58:04;3.10;99.90
34542;DHT22;20784;51.332;12.410;2022-12-07T07:00:30;3.10;99.90
34542;DHT22;20784;51.332;12.410;2022-12-07T07:02:59;3.10;99.90
34542;DHT22;20784;51.332;12.410;2022-12-07T07:05:24;3.10;99.90
34542;DHT22;20784;51.332;12.410;2022-12-07T07:07:56;3.20;99.90
34542;DHT22;20784;51.332;12.410;2022-12-07T07:10:31;3.20;99.90
34542;DHT22;20784;51.332;12.410;2022-12-07T07:12:57;3.30;99.90
34542;DHT22;20784;51.332;12.410;2022-12-07T07:15:23;3.30;99.90
34542;DHT22;20784;51.332;12.410;2022-12-07T07:17:48;3.30;99.90
34542;DHT22;20784;51.332;12.410;2022-12-07T07:20:14;3.30;99.90
34542;DHT22;20784;51.332;12.410;2022-12-07T07:22:40;3.40;99.90
34542;DHT22;20784;51.332;12.410;2022-12-07T07:25:06;3.40;99.90
34542;DHT22;20784;51.332;12.410;2022-12-07T07:27:32;3.40;99.90
34542;DHT22;20784;51.332;12.410;2022-12-07T07:29:58;3.40;99.90
34542;DHT22;20784;51.332;12.410;2022-12-07T07:32:24;3.40;99.90
34542;DHT22;20784;51.332;12.410;2022-12-07T07:34:52;3.50;99.90
34542;DHT22;20784;51.332;12.410;2022-12-07T07:37:18;3.50;99.90
34542;DHT22;20784;51.332;12.410;2022-12-07T07:39:43;3.60;99.90
34542;DHT22;20784;51.332;12.410;2022-12-07T07:42:09;3.60;99.90
34542;DHT22;20784;51.332;12.410;2022-12-07T07:44:35;3.70;99.90
34542;DHT22;20784;51.332;12.410;2022-12-07T07:47:00;3.80;99.90
34542;DHT22;20784;51.332;12.410;2022-12-07T07:49:26;3.80;99.90
34542;DHT22;20784;51.332;12.410;2022-12-07T07:51:52;3.80;99.90
34542;DHT22;20784;51.332;12.410;2022-12-07T07:54:18;3.90;99.90
34542;DHT22;20784;51.332;12.410;2022-12-07T07:56:43;3.80;99.90
34542;DHT22;20784;51.332;12.410;2022-12-07T07:59:09;3.80;99.90
34542;DHT22;20784;51.332;12.410;2022-12-07T08:01:35;3.90;99.90
34542;DHT22;20784;51.332;12.410;2022-12-07T08:04:00;4.00;99.90
34542;DHT22;20784;51.332;12.410;2022-12-07T08:06:26;4.10;99.90
34542;DHT22;20784;51.332;12.410;2022-12-07T08:08:52;4.20;99.90
34542;DHT22;20784;51.332;12.410;2022-12-07T08:11:25;4.30;99.90
34542;DHT22;20784;51.332;12.410;2022-12-07T08:13:51;4.70;99.90
34542;DHT22;20784;51.332;12.410;2022-12-07T08:16:17;5.10;99.90
34542;DHT22;20784;51.332;12.410;2022-12-07T08:18:43;5.20;99.90
34542;DHT22;20784;51.332;12.410;2022-12-07T08:21:12;5.20;99.90
34542;DHT22;20784;51.332;12.410;2022-12-07T08:23:41;5.20;99.90
34542;DHT22;20784;51.332;12.410;2022-12-07T08:26:17;4.90;99.90
34542;DHT22;20784;51.332;12.410;2022-12-07T08:28:48;4.70;99.90
34542;DHT22;20784;51.332;12.410;2022-12-07T08:31:16;4.60;99.90
34542;DHT22;20784;51.332;12.410;2022-12-07T08:33:48;4.60;99.90
34542;DHT22;20784;51.332;12.410;2022-12-07T08:36:19;4.40;99.90
34542;DHT22;20784;51.332;12.410;2022-12-07T08:38:53;4.40;99.90
34542;DHT22;20784;51.332;12.410;2022-12-07T08:41:19;4.40;99.90
34542;DHT22;20784;51.332;12.410;2022-12-07T08:43:50;4.50;99.90
34542;DHT22;20784;51.332;12.410;2022-12-07T08:46:28;5.00;99.90
34542;DHT22;20784;51.332;12.410;2022-12-07T08:49:24;5.50;99.90
34542;DHT22;20784;51.332;12.410;2022-12-07T08:52:02;5.60;99.90
34542;DHT22;20784;51.332;12.410;2022-12-07T08:54:42;5.90;99.90
34542;DHT22;20784;51.332;12.410;2022-12-07T08:57:20;5.90;99.90
34542;DHT22;20784;51.332;12.410;2022-12-07T08:59:51;5.80;99.90
34542;DHT22;20784;51.332;12.410;2022-12-07T09:02:30;5.50;99.90
34542;DHT22;20784;51.332;12.410;2022-12-07T09:04:59;5.40;99.90
34542;DHT22;20784;51.332;12.410;2022-12-07T09:07:25;5.20;99.90
34542;DHT22;20784;51.332;12.410;2022-12-07T09:10:01;5.10;99.90
34542;DHT22;20784;51.332;12.410;2022-12-07T09:12:31;5.10;99.90
34542;DHT22;20784;51.332;12.410;2022-12-07T09:15:17;5.00;99.90
34542;DHT22;20784;51.332;12.410;2022-12-07T09:18:00;5.00;99.90
34542;DHT22;20784;51.332;12.410;2022-12-07T09:20:29;5.00;99.90
34542;DHT22;20784;51.332;12.410;2022-12-07T09:22:55;5.00;99.90
34542;DHT22;20784;51.332;12.410;2022-12-07T09:25:24;5.00;99.90
34542;DHT22;20784;51.332;12.410;2022-12-07T09:27:57;5.00;99.90
34542;DHT22;20784;51.332;12.410;2022-12-07T09:30:27;5.00;99.90
34542;DHT22;20784;51.332;12.410;2022-12-07T09:32:59;5.00;99.90
34542;DHT22;20784;51.332;12.410;2022-12-07T09:35:26;5.00;99.90
34542;DHT22;20784;51.332;12.410;2022-12-07T09:40:48;4.90;99.90
34542;DHT22;20784;51.332;12.410;2022-12-07T09:43:16;5.00;99.90
34542;DHT22;20784;51.332;12.410;2022-12-07T09:45:42;5.00;99.90
34542;DHT22;20784;51.332;12.410;2022-12-07T09:50:57;5.00;99.90
34542;DHT22;20784;51.332;12.410;2022-12-07T09:53:37;5.00;99.90
34542;DHT22;20784;51.332;12.410;2022-12-07T09:56:06;5.00;99.90
34542;DHT22;20784;51.332;12.410;2022-12-07T09:58:33;5.00;99.90
34542;DHT22;20784;51.332;12.410;2022-12-07T10:01:12;5.00;99.90
34542;DHT22;20784;51.332;12.410;2022-12-07T10:03:40;5.00;99.90
34542;DHT22;20784;51.332;12.410;2022-12-07T10:06:07;4.90;99.90
34542;DHT22;20784;51.332;12.410;2022-12-07T10:08:33;4.90;99.90
34542;DHT22;20784;51.332;12.410;2022-12-07T10:11:01;5.00;99.90
34542;DHT22;20784;51.332;12.410;2022-12-07T10:13:35;5.00;99.90
34542;DHT22;20784;51.332;12.410;2022-12-07T10:16:02;5.00;99.90
34542;DHT22;20784;51.332;12.410;2022-12-07T10:18:40;5.00;99.90
34542;DHT22;20784;51.332;12.410;2022-12-07T10:21:14;5.00;99.90
34542;DHT22;20784;51.332;12.410;2022-12-07T10:28:53;5.20;99.90
34542;DHT22;20784;51.332;12.410;2022-12-07T10:31:22;5.20;99.90
34542;DHT22;20784;51.332;12.410;2022-12-07T10:33:59;5.30;99.90
34542;DHT22;20784;51.332;12.410;2022-12-07T10:39:00;5.50;99.90
34542;DHT22;20784;51.332;12.410;2022-12-07T10:41:27;5.40;99.90
34542;DHT22;20784;51.332;12.410;2022-12-07T10:43:55;5.40;99.90
34542;DHT22;20784;51.332;12.410;2022-12-07T10:46:46;5.50;99.90
34542;DHT22;20784;51.332;12.410;2022-12-07T10:55:19;5.40;99.90
34542;DHT22;20784;51.332;12.410;2022-12-07T11:01:11;5.40;99.90
34542;DHT22;20784;51.332;12.410;2022-12-07T11:09:59;5.50;99.90
34542;DHT22;20784;51.332;12.410;2022-12-07T11:13:18;5.50;99.90
34542;DHT22;20784;51.332;12.410;2022-12-07T11:16:00;5.40;99.90
34542;DHT22;20784;51.332;12.410;2022-12-07T11:35:37;4.90;99.90
34542;DHT22;20784;51.332;12.410;2022-12-07T11:38:31;5.00;99.90
34542;DHT22;20784;51.332;12.410;2022-12-07T11:41:04;5.00;99.90
34542;DHT22;20784;51.332;12.410;2022-12-07T11:46:58;5.10;99.90
34542;DHT22;20784;51.332;12.410;2022-12-07T11:49:51;5.10;99.90
34542;DHT22;20784;51.332;12.410;2022-12-07T11:52:52;5.10;99.90
34542;DHT22;20784;51.332;12.410;2022-12-07T11:55:44;5.10;99.90
34542;DHT22;20784;51.332;12.410;2022-12-07T12:01:31;5.10;99.90
34542;DHT22;20784;51.332;12.410;2022-12-07T12:04:25;5.30;99.90
34542;DHT22;20784;51.332;12.410;2022-12-07T12:06:52;5.30;99.90
34542;DHT22;20784;51.332;12.410;2022-12-07T12:09:34;5.40;99.90
34542;DHT22;20784;51.332;12.410;2022-12-07T12:15:51;5.50;99.90
34542;DHT22;20784;51.332;12.410;2022-12-07T12:21:06;5.60;99.90
34542;DHT22;20784;51.332;12.410;2022-12-07T12:23:50;5.60;99.90
34542;DHT22;20784;51.332;12.410;2022-12-07T12:26:21;5.90;99.90
34542;DHT22;20784;51.332;12.410;2022-12-07T12:29:06;5.80;99.90
34542;DHT22;20784;51.332;12.410;2022-12-07T12:31:47;5.80;99.90
34542;DHT22;20784;51.332;12.410;2022-12-07T12:34:41;5.80;99.90
34542;DHT22;20784;51.332;12.410;2022-12-07T12:42:53;5.90;99.90
34542;DHT22;20784;51.332;12.410;2022-12-07T12:48:00;5.90;99.90
34542;DHT22;20784;51.332;12.410;2022-12-07T12:58:29;5.80;99.90
34542;DHT22;20784;51.332;12.410;2022-12-07T13:01:35;5.70;99.90
34542;DHT22;20784;51.332;12.410;2022-12-07T13:04:03;5.70;99.90
34542;DHT22;20784;51.332;12.410;2022-12-07T13:06:50;5.70;99.90
34542;DHT22;20784;51.332;12.410;2022-12-07T13:09:26;5.70;99.90
34542;DHT22;20784;51.332;12.410;2022-12-07T13:12:04;5.80;99.90
34542;DHT22;20784;51.332;12.410;2022-12-07T13:14:54;5.70;99.90
34542;DHT22;20784;51.332;12.410;2022-12-07T13:20:05;5.70;99.90
34542;DHT22;20784;51.332;12.410;2022-12-07T13:31:15;5.90;99.90
34542;DHT22;20784;51.332;12.410;2022-12-07T13:33:34;6.00;99.90
34542;DHT22;20784;51.332;12.410;2022-12-07T13:36:03;6.00;99.90
34542;DHT22;20784;51.332;12.410;2022-12-07T13:38:32;6.00;99.90
34542;DHT22;20784;51.332;12.410;2022-12-07T13:41:16;6.00;99.90
34542;DHT22;20784;51.332;12.410;2022-12-07T13:43:50;6.10;99.90
34542;DHT22;20784;51.332;12.410;2022-12-07T13:46:25;6.10;99.90
34542;DHT22;20784;51.332;12.410;2022-12-07T13:48:51;6.10;99.90
34542;DHT22;20784;51.332;12.410;2022-12-07T13:51:23;6.10;99.90
34542;DHT22;20784;51.332;12.410;2022-12-07T13:53:56;6.10;99.90
34542;DHT22;20784;51.332;12.410;2022-12-07T13:56:31;6.10;99.90
34542;DHT22;20784;51.332;12.410;2022-12-07T13:58:58;6.00;99.90
34542;DHT22;20784;51.332;12.410;2022-12-07T14:01:31;6.00;99.90
34542;DHT22;20784;51.332;12.410;2022-12-07T14:04:17;6.00;99.90
34542;DHT22;20784;51.332;12.410;2022-12-07T14:06:50;6.00;99.90
34542;DHT22;20784;51.332;12.410;2022-12-07T14:09:23;5.90;99.90
34542;DHT22;20784;51.332;12.410;2022-12-07T14:11:50;5.80;99.90
34542;DHT22;20784;51.332;12.410;2022-12-07T14:14:29;5.80;99.90
34542;DHT22;20784;51.332;12.410;2022-12-07T14:19:44;5.70;99.90
34542;DHT22;20784;51.332;12.410;2022-12-07T14:22:34;5.70;99.90
34542;DHT22;20784;51.332;12.410;2022-12-07T14:25:22;5.60;99.90
34542;DHT22;20784;51.332;12.410;2022-12-07T14:28:09;5.60;99.90
34542;DHT22;20784;51.332;12.410;2022-12-07T14:30:49;5.50;99.90
34542;DHT22;20784;51.332;12.410;2022-12-07T14:33:15;5.50;99.90
34542;DHT22;20784;51.332;12.410;2022-12-07T14:35:43;5.50;99.90
34542;DHT22;20784;51.332;12.410;2022-12-07T14:38:09;5.40;99.90
34542;DHT22;20784;51.332;12.410;2022-12-07T14:40:38;5.50;99.90
34542;DHT22;20784;51.332;12.410;2022-12-07T14:43:12;5.50;99.90
34542;DHT22;20784;51.332;12.410;2022-12-07T14:45:43;5.50;99.90
34542;DHT22;20784;51.332;12.410;2022-12-07T14:48:12;5.40;99.90
34542;DHT22;20784;51.332;12.410;2022-12-07T14:50:43;5.40;99.90
34542;DHT22;20784;51.332;12.410;2022-12-07T14:53:14;5.30;99.90
34542;DHT22;20784;51.332;12.410;2022-12-07T14:55:40;5.30;99.90
34542;DHT22;20784;51.332;12.410;2022-12-07T14:58:07;5.20;99.90
34542;DHT22;20784;51.332;12.410;2022-12-07T15:00:37;5.20;99.90
34542;DHT22;20784;51.332;12.410;2022-12-07T15:03:03;5.20;99.90
34542;DHT22;20784;51.332;12.410;2022-12-07T15:05:28;5.10;99.90
34542;DHT22;20784;51.332;12.410;2022-12-07T15:07:54;5.10;99.90
34542;DHT22;20784;51.332;12.410;2022-12-07T15:10:31;5.00;99.90
34542;DHT22;20784;51.332;12.410;2022-12-07T15:13:01;5.00;99.90
34542;DHT22;20784;51.332;12.410;2022-12-07T15:15:54;5.00;99.90
34542;DHT22;20784;51.332;12.410;2022-12-07T15:18:21;5.00;99.90
34542;DHT22;20784;51.332;12.410;2022-12-07T15:20:51;5.00;99.90
34542;DHT22;20784;51.332;12.410;2022-12-07T15:23:17;5.00;99.90
34542;DHT22;20784;51.332;12.410;2022-12-07T15:25:44;5.00;99.90
34542;DHT22;20784;51.332;12.410;2022-12-07T15:28:10;5.00;99.90
34542;DHT22;20784;51.332;12.410;2022-12-07T15:30:41;5.00;99.90
34542;DHT22;20784;51.332;12.410;2022-12-07T15:33:08;4.90;99.90
34542;DHT22;20784;51.332;12.410;2022-12-07T15:35:37;4.90;99.90
34542;DHT22;20784;51.332;12.410;2022-12-07T15:38:06;4.90;99.90
34542;DHT22;20784;51.332;12.410;2022-12-07T15:40:33;4.90;99.90
34542;DHT22;20784;51.332;12.410;2022-12-07T15:43:01;4.90;99.90
34542;DHT22;20784;51.332;12.410;2022-12-07T15:45:26;4.90;99.90
34542;DHT22;20784;51.332;12.410;2022-12-07T15:47:52;4.90;99.90
34542;DHT22;20784;51.332;12.410;2022-12-07T15:50:41;4.90;99.90
34542;DHT22;20784;51.332;12.410;2022-12-07T15:53:12;4.90;99.90
34542;DHT22;20784;51.332;12.410;2022-12-07T15:55:43;4.90;99.90
34542;DHT22;20784;51.332;12.410;2022-12-07T15:58:12;4.90;99.90
34542;DHT22;20784;51.332;12.410;2022-12-07T16:00:48;5.00;99.90
34542;DHT22;20784;51.332;12.410;2022-12-07T16:03:22;5.00;99.90
34542;DHT22;20784;51.332;12.410;2022-12-07T16:06:07;5.00;99.90
34542;DHT22;20784;51.332;12.410;2022-12-07T16:08:47;5.00;99.90
34542;DHT22;20784;51.332;12.410;2022-12-07T16:11:13;5.00;99.90
34542;DHT22;20784;51.332;12.410;2022-12-07T16:13:43;5.00;99.90
34542;DHT22;20784;51.332;12.410;2022-12-07T16:16:15;5.00;99.90
34542;DHT22;20784;51.332;12.410;2022-12-07T16:18:42;5.00;99.90
34542;DHT22;20784;51.332;12.410;2022-12-07T16:21:08;4.90;99.90
34542;DHT22;20784;51.332;12.410;2022-12-07T16:23:35;4.70;99.90
34542;DHT22;20784;51.332;12.410;2022-12-07T16:26:10;4.60;99.90
34542;DHT22;20784;51.332;12.410;2022-12-07T16:28:39;4.60;99.90
34542;DHT22;20784;51.332;12.410;2022-12-07T16:31:11;4.50;99.90
34542;DHT22;20784;51.332;12.410;2022-12-07T16:33:41;4.50;99.90
34542;DHT22;20784;51.332;12.410;2022-12-07T16:36:08;4.50;99.90
34542;DHT22;20784;51.332;12.410;2022-12-07T16:38:35;4.40;99.90
34542;DHT22;20784;51.332;12.410;2022-12-07T16:41:05;4.40;99.90
34542;DHT22;20784;51.332;12.410;2022-12-07T16:43:32;4.40;99.90
34542;DHT22;20784;51.332;12.410;2022-12-07T16:45:57;4.40;99.90
34542;DHT22;20784;51.332;12.410;2022-12-07T16:48:23;4.40;99.90
34542;DHT22;20784;51.332;12.410;2022-12-07T16:50:52;4.40;99.90
34542;DHT22;20784;51.332;12.410;2022-12-07T16:53:21;4.30;99.90
34542;DHT22;20784;51.332;12.410;2022-12-07T16:55:47;4.30;99.90
34542;DHT22;20784;51.332;12.410;2022-12-07T16:58:17;4.30;99.90
34542;DHT22;20784;51.332;12.410;2022-12-07T17:00:44;4.30;99.90
34542;DHT22;20784;51.332;12.410;2022-12-07T17:03:10;4.30;99.90
34542;DHT22;20784;51.332;12.410;2022-12-07T17:05:40;4.30;99.90
34542;DHT22;20784;51.332;12.410;2022-12-07T17:08:09;4.40;99.90
34542;DHT22;20784;51.332;12.410;2022-12-07T17:10:37;4.40;99.90
34542;DHT22;20784;51.332;12.410;2022-12-07T17:13:07;4.30;99.90
34542;DHT22;20784;51.332;12.410;2022-12-07T17:15:59;4.30;99.90
34542;DHT22;20784;51.332;12.410;2022-12-07T17:18:27;4.30;99.90
34542;DHT22;20784;51.332;12.410;2022-12-07T17:20:53;4.30;99.90
34542;DHT22;20784;51.332;12.410;2022-12-07T17:23:19;4.30;99.90
34542;DHT22;20784;51.332;12.410;2022-12-07T17:25:45;4.30;99.90
34542;DHT22;20784;51.332;12.410;2022-12-07T17:28:11;4.30;99.90
34542;DHT22;20784;51.332;12.410;2022-12-07T17:30:38;4.30;99.90
34542;DHT22;20784;51.332;12.410;2022-12-07T17:33:03;4.20;99.90
34542;DHT22;20784;51.332;12.410;2022-12-07T17:35:29;4.30;99.90
34542;DHT22;20784;51.332;12.410;2022-12-07T17:37:55;4.40;99.90
34542;DHT22;20784;51.332;12.410;2022-12-07T17:40:21;4.40;99.90
34542;DHT22;20784;51.332;12.410;2022-12-07T17:42:47;4.40;99.90
34542;DHT22;20784;51.332;12.410;2022-12-07T17:45:16;4.40;99.90
34542;DHT22;20784;51.332;12.410;2022-12-07T17:47:42;4.40;99.90
34542;DHT22;20784;51.332;12.410;2022-12-07T17:50:09;4.40;99.90
34542;DHT22;20784;51.332;12.410;2022-12-07T17:52:38;4.40;99.90
34542;DHT22;20784;51.332;12.410;2022-12-07T17:55:23;4.40;99.90
34542;DHT22;20784;51.332;12.410;2022-12-07T17:57:49;4.40;99.90